createdAt,value
2018-04-19T00:01:13.309Z,8.50
2018-04-19T00:03:39.718Z,8.50
2018-04-19T00:06:06.209Z,8.50
2018-04-19T00:08:33.357Z,8.40
2018-04-19T00:10:59.789Z,8.40
2018-04-19T00:13:26.199Z,8.40
2018-04-19T00:15:52.627Z,8.30
2018-04-19T00:18:19.078Z,8.30
2018-04-19T00:20:45.592Z,8.30
2018-04-19T00:23:11.988Z,8.20
2018-04-19T00:25:38.402Z,8.20
2018-04-19T00:28:04.871Z,8.20
2018-04-19T00:30:31.333Z,8.10
2018-04-19T00:32:57.843Z,8.10
2018-04-19T00:35:24.242Z,8.00
2018-04-19T00:37:50.654Z,8.00
2018-04-19T00:40:17.802Z,7.90
2018-04-19T00:42:44.964Z,7.80
2018-04-19T00:45:11.408Z,7.80
2018-04-19T00:47:37.909Z,7.80
2018-04-19T00:50:05.052Z,7.80
2018-04-19T00:52:44.628Z,7.80
2018-04-19T00:55:12.452Z,7.80
2018-04-19T00:57:38.974Z,7.80
2018-04-19T01:00:06.125Z,7.80
2018-04-19T01:02:33.287Z,7.80
2018-04-19T01:04:59.700Z,7.80
2018-04-19T01:07:26.103Z,7.80
2018-04-19T01:09:52.553Z,7.80
2018-04-19T01:12:18.952Z,7.80
2018-04-19T01:14:45.353Z,7.70
2018-04-19T01:17:12.819Z,7.70
2018-04-19T01:19:39.276Z,7.70
2018-04-19T01:22:05.704Z,7.70
2018-04-19T01:24:32.113Z,7.70
2018-04-19T01:26:58.525Z,7.60
2018-04-19T01:29:24.971Z,7.60
2018-04-19T01:31:51.435Z,7.60
2018-04-19T01:34:17.854Z,7.50
2018-04-19T01:36:45.051Z,7.60
2018-04-19T01:39:11.481Z,7.50
2018-04-19T01:41:38.643Z,7.60
2018-04-19T01:44:05.060Z,7.60
2018-04-19T01:46:31.575Z,7.60
2018-04-19T01:48:58.116Z,7.60
2018-04-19T01:51:25.305Z,7.50
2018-04-19T01:53:52.465Z,7.50
2018-04-19T01:56:19.616Z,7.40
2018-04-19T01:58:46.046Z,7.40
2018-04-19T02:01:12.565Z,7.40
2018-04-19T02:03:38.993Z,7.40
2018-04-19T02:06:05.411Z,7.40
2018-04-19T02:08:31.855Z,7.30
2018-04-19T02:10:58.295Z,7.30
2018-04-19T02:13:24.739Z,7.30
2018-04-19T02:15:51.885Z,7.30
2018-04-19T02:18:18.371Z,7.20
2018-04-19T02:20:44.803Z,7.20
2018-04-19T02:23:11.261Z,7.20
2018-04-19T02:25:38.556Z,7.20
2018-04-19T02:28:05.786Z,7.20
2018-04-19T02:30:32.197Z,7.20
2018-04-19T02:32:59.497Z,7.20
2018-04-19T02:35:25.934Z,7.20
2018-04-19T02:37:52.336Z,7.10
2018-04-19T02:40:18.829Z,7.10
2018-04-19T02:42:45.412Z,7.10
2018-04-19T02:45:12.563Z,7.00
2018-04-19T02:47:39.709Z,7.00
2018-04-19T02:50:06.124Z,6.90
2018-04-19T02:52:32.532Z,7.00
2018-04-19T02:54:59.820Z,6.90
2018-04-19T02:57:26.238Z,6.90
2018-04-19T02:59:52.694Z,6.90
2018-04-19T03:02:19.132Z,6.90
2018-04-19T03:04:45.643Z,6.90
2018-04-19T03:07:12.690Z,6.90
2018-04-19T03:09:39.100Z,6.90
2018-04-19T03:12:05.625Z,6.90
2018-04-19T03:14:32.808Z,6.90
2018-04-19T03:16:59.234Z,6.90
2018-04-19T03:19:25.668Z,7.00
2018-04-19T03:21:52.082Z,7.00
2018-04-19T03:24:18.511Z,7.00
2018-04-19T03:26:45.698Z,7.00
2018-04-19T03:29:12.608Z,7.00
2018-04-19T03:31:39.060Z,7.00
2018-04-19T03:34:05.573Z,7.00
2018-04-19T03:36:31.976Z,7.00
2018-04-19T03:38:58.392Z,7.00
2018-04-19T03:41:24.938Z,6.90
2018-04-19T03:43:52.099Z,6.90
2018-04-19T03:46:19.267Z,7.00
2018-04-19T03:48:46.415Z,6.90
2018-04-19T03:51:12.911Z,6.90
2018-04-19T03:53:40.087Z,6.90
2018-04-19T03:56:06.505Z,6.90
2018-04-19T03:58:33.413Z,6.90
2018-04-19T04:00:59.968Z,6.90
2018-04-19T04:03:26.404Z,6.90
2018-04-19T04:05:53.593Z,6.90
2018-04-19T04:08:20.024Z,6.80
2018-04-19T04:10:46.521Z,6.90
2018-04-19T04:13:12.980Z,6.90
2018-04-19T04:15:39.522Z,6.90
2018-04-19T04:18:18.141Z,6.90
2018-04-19T04:20:58.233Z,6.90
2018-04-19T04:23:39.799Z,6.90
2018-04-19T04:26:06.950Z,7.00
2018-04-19T04:28:33.367Z,7.00
2018-04-19T04:30:59.782Z,7.10
2018-04-19T04:33:26.232Z,7.10
2018-04-19T04:35:53.422Z,7.30
2018-04-19T04:38:19.812Z,7.30
2018-04-19T04:40:46.214Z,7.40
2018-04-19T04:43:12.666Z,7.50
2018-04-19T04:45:39.819Z,7.60
2018-04-19T04:48:06.866Z,7.60
2018-04-19T04:50:33.327Z,7.70
2018-04-19T04:52:59.771Z,7.80
2018-04-19T04:55:26.213Z,7.90
2018-04-19T04:57:52.657Z,8.00
2018-04-19T05:00:19.195Z,8.10
2018-04-19T05:02:45.759Z,8.20
2018-04-19T05:05:12.221Z,8.30
2018-04-19T05:07:38.684Z,8.40
2018-04-19T05:10:05.146Z,8.50
2018-04-19T05:12:31.601Z,8.70
2018-04-19T05:14:58.030Z,9.30
2018-04-19T05:17:24.456Z,10.40
2018-04-19T05:19:50.904Z,11.80
2018-04-19T05:22:17.369Z,13.20
2018-04-19T05:24:43.812Z,14.70
2018-04-19T05:27:10.230Z,16.10
2018-04-19T05:29:36.650Z,17.40
2018-04-19T05:32:03.848Z,19.70
2018-04-19T05:34:30.367Z,19.60
2018-04-19T05:36:57.388Z,20.60
2018-04-19T05:39:23.850Z,21.40
2018-04-19T05:41:50.223Z,22.30
2018-04-19T05:44:16.680Z,23.10
2018-04-19T05:46:43.106Z,23.80
2018-04-19T05:49:09.552Z,24.50
2018-04-19T05:51:36.731Z,25.90
2018-04-19T05:54:03.199Z,25.80
2018-04-19T05:56:29.646Z,26.80
2018-04-19T05:58:56.141Z,27.40
2018-04-19T06:01:22.649Z,27.90
2018-04-19T06:03:49.844Z,29.00
2018-04-19T06:06:16.316Z,28.90
2018-04-19T06:08:42.856Z,29.20
2018-04-19T06:11:09.286Z,29.50
2018-04-19T06:13:36.470Z,30.20
2018-04-19T06:16:02.921Z,30.20
2018-04-19T06:18:30.108Z,31.20
2018-04-19T06:20:56.520Z,31.10
2018-04-19T06:23:23.721Z,32.00
2018-04-19T06:25:50.995Z,32.10
2018-04-19T06:28:18.339Z,32.00
2018-04-19T06:30:44.761Z,32.00
2018-04-19T06:33:11.203Z,32.30
2018-04-19T06:35:37.679Z,33.20
2018-04-19T06:38:04.198Z,33.80
2018-04-19T06:40:31.347Z,34.60
2018-04-19T06:42:58.509Z,35.40
2018-04-19T06:45:24.966Z,35.30
2018-04-19T06:47:52.149Z,36.70
2018-04-19T06:50:18.542Z,36.70
2018-04-19T06:52:44.971Z,37.10
2018-04-19T06:55:12.147Z,37.50
2018-04-19T06:57:39.310Z,37.50
2018-04-19T07:00:05.848Z,37.40
2018-04-19T07:02:32.260Z,38.00
2018-04-19T07:04:58.695Z,38.40
2018-04-19T07:07:25.884Z,39.10
2018-04-19T07:09:52.902Z,39.10
2018-04-19T07:12:20.370Z,39.60
2018-04-19T07:14:46.821Z,39.80
2018-04-19T07:17:13.284Z,39.70
2018-04-19T07:19:39.784Z,39.90
2018-04-19T07:22:06.950Z,40.50
2018-04-19T07:24:34.169Z,40.80
2018-04-19T07:27:00.591Z,40.80
2018-04-19T07:29:27.685Z,40.80
2018-04-19T07:31:54.222Z,40.90
2018-04-19T07:34:20.713Z,41.40
2018-04-19T07:36:47.227Z,41.70
2018-04-19T07:39:14.502Z,42.50
2018-04-19T07:41:41.776Z,42.80
2018-04-19T07:44:08.234Z,42.80
2018-04-19T07:46:35.608Z,43.90
2018-04-19T07:49:02.799Z,44.50
2018-04-19T07:51:29.203Z,44.50
2018-04-19T07:53:56.387Z,45.40
2018-04-19T07:56:22.809Z,45.30
2018-04-19T07:58:49.223Z,45.70
2018-04-19T08:01:15.628Z,46.00
2018-04-19T08:03:42.100Z,46.30
2018-04-19T08:06:08.508Z,46.00
2018-04-19T08:08:34.996Z,45.40
2018-04-19T08:11:01.434Z,45.30
2018-04-19T08:13:27.840Z,45.60
2018-04-19T08:15:54.991Z,45.50
2018-04-19T08:18:21.440Z,45.50
2018-04-19T08:20:47.905Z,44.90
2018-04-19T08:23:14.321Z,44.60
2018-04-19T08:25:40.760Z,44.00
2018-04-19T08:28:07.274Z,42.80
2018-04-19T08:30:33.706Z,41.90
2018-04-19T08:33:00.139Z,41.60
2018-04-19T08:35:26.618Z,41.30
2018-04-19T08:37:53.029Z,40.60
2018-04-19T08:40:19.476Z,39.60
2018-04-19T08:42:46.665Z,35.30
2018-04-19T08:45:13.108Z,35.20
2018-04-19T08:47:40.268Z,32.10
2018-04-19T08:50:06.720Z,32.00
2018-04-19T08:52:33.158Z,30.70
2018-04-19T08:54:59.660Z,29.30
2018-04-19T08:57:27.385Z,28.00
2018-04-19T08:59:54.001Z,27.90
2018-04-19T09:02:21.171Z,27.10
2018-04-19T09:04:47.594Z,27.00
2018-04-19T09:07:14.035Z,26.70
2018-04-19T09:09:40.457Z,26.30
2018-04-19T09:12:06.855Z,25.90
2018-04-19T09:14:33.353Z,25.40
2018-04-19T09:17:00.528Z,24.80
2018-04-19T09:19:27.224Z,24.70
2018-04-19T09:21:53.629Z,24.60
2018-04-19T09:24:20.794Z,24.30
2018-04-19T09:26:48.255Z,24.10
2018-04-19T09:29:14.627Z,24.10
2018-04-19T09:31:41.018Z,24.10
2018-04-19T09:34:07.482Z,24.10
2018-04-19T09:36:33.916Z,24.00
2018-04-19T09:39:00.473Z,24.00
2018-04-19T09:41:27.651Z,23.70
2018-04-19T09:43:54.066Z,23.70
2018-04-19T09:46:20.556Z,23.50
2018-04-19T09:48:47.730Z,23.50
2018-04-19T09:51:15.106Z,23.50
2018-04-19T09:53:42.291Z,23.60
2018-04-19T09:56:08.947Z,23.60
2018-04-19T09:58:35.412Z,23.60
2018-04-19T10:01:07.873Z,23.70
2018-04-19T10:03:40.437Z,23.80
2018-04-19T10:06:07.827Z,23.80
2018-04-19T10:08:34.314Z,23.80
2018-04-19T10:11:00.728Z,23.90
2018-04-19T10:13:27.222Z,23.80
2018-04-19T10:15:54.509Z,23.80
2018-04-19T10:18:20.954Z,23.80
2018-04-19T10:20:47.419Z,23.80
2018-04-19T10:23:13.827Z,23.70
2018-04-19T10:25:40.771Z,23.70
2018-04-19T10:28:07.220Z,23.70
2018-04-19T10:30:33.673Z,23.70
2018-04-19T10:33:00.733Z,23.80
2018-04-19T10:35:27.156Z,23.70
2018-04-19T10:37:54.353Z,23.80
2018-04-19T10:40:20.903Z,23.70
2018-04-19T10:42:48.094Z,23.90
2018-04-19T10:45:14.498Z,23.90
2018-04-19T10:47:40.913Z,23.90
2018-04-19T10:50:07.328Z,23.90
2018-04-19T10:52:34.482Z,23.80
2018-04-19T10:55:00.971Z,23.80
2018-04-19T10:57:27.375Z,23.80
2018-04-19T10:59:53.834Z,23.80
2018-04-19T11:02:20.337Z,23.90
2018-04-19T11:04:47.496Z,24.00
2018-04-19T11:07:14.631Z,24.10
2018-04-19T11:09:41.117Z,24.00
2018-04-19T11:12:07.522Z,24.00
2018-04-19T11:14:34.466Z,23.90
2018-04-19T11:17:01.017Z,24.00
2018-04-19T11:19:28.186Z,23.90
2018-04-19T11:21:55.340Z,23.90
2018-04-19T11:24:21.920Z,23.90
2018-04-19T11:26:48.376Z,24.00
2018-04-19T11:29:15.627Z,24.00
2018-04-19T11:31:42.051Z,24.00
2018-04-19T11:34:08.535Z,24.00
2018-04-19T11:36:35.046Z,24.00
2018-04-19T11:39:01.519Z,24.00
2018-04-19T11:41:28.035Z,23.90
2018-04-19T11:43:55.184Z,23.90
2018-04-19T11:46:22.362Z,23.90
2018-04-19T11:48:49.645Z,23.90
2018-04-19T11:51:16.904Z,24.00
2018-04-19T11:53:43.382Z,23.90
2018-04-19T11:56:10.536Z,24.00
2018-04-19T11:58:36.965Z,24.00
2018-04-19T12:01:03.409Z,24.00
2018-04-19T12:03:29.866Z,24.00
2018-04-19T12:05:56.305Z,24.00
2018-04-19T12:08:22.766Z,24.00
2018-04-19T12:10:49.202Z,24.00
2018-04-19T12:13:15.648Z,24.00
2018-04-19T12:15:42.925Z,24.00
2018-04-19T12:18:09.484Z,24.00
2018-04-19T12:20:36.777Z,24.10
2018-04-19T12:23:03.293Z,24.00
2018-04-19T12:25:29.709Z,24.10
2018-04-19T12:27:56.227Z,24.10
2018-04-19T12:30:23.404Z,24.00
2018-04-19T12:32:49.879Z,24.00
2018-04-19T12:35:16.428Z,24.00
2018-04-19T12:37:42.921Z,24.00
2018-04-19T12:40:09.415Z,24.00
2018-04-19T12:42:36.629Z,24.00
2018-04-19T12:45:03.264Z,24.00
2018-04-19T12:47:29.822Z,24.00
2018-04-19T12:49:56.381Z,24.00
2018-04-19T12:52:22.944Z,24.00
2018-04-19T12:54:49.380Z,24.10
2018-04-19T12:57:16.668Z,24.20
2018-04-19T12:59:43.088Z,24.20
2018-04-19T13:02:10.259Z,24.20
2018-04-19T13:04:36.684Z,24.20
2018-04-19T13:07:03.209Z,24.20
2018-04-19T13:09:30.381Z,24.10
2018-04-19T13:11:57.655Z,24.20
2018-04-19T13:14:24.860Z,24.10
2018-04-19T13:16:52.106Z,24.10
2018-04-19T13:19:18.774Z,24.10
2018-04-19T13:21:45.323Z,24.00
2018-04-19T13:24:12.545Z,24.00
2018-04-19T13:26:39.033Z,24.00
2018-04-19T13:29:06.891Z,24.00
2018-04-19T13:31:33.322Z,24.00
2018-04-19T13:34:00.569Z,24.00
2018-04-19T13:36:29.282Z,24.00
2018-04-19T13:38:55.768Z,23.90
2018-04-19T13:41:24.167Z,24.00
2018-04-19T13:43:50.688Z,24.00
2018-04-19T13:46:17.164Z,24.00
2018-04-19T13:48:43.582Z,24.00
2018-04-19T13:51:10.162Z,24.10
2018-04-19T13:53:37.131Z,24.10
2018-04-19T13:56:03.688Z,24.00
2018-04-19T13:58:30.854Z,24.00
2018-04-19T14:00:58.049Z,23.90
2018-04-19T14:03:24.590Z,23.90
2018-04-19T14:05:51.896Z,23.90
2018-04-19T14:08:18.304Z,23.80
2018-04-19T14:10:44.758Z,23.90
2018-04-19T14:13:11.235Z,23.90
2018-04-19T14:15:38.439Z,23.90
2018-04-19T14:18:04.869Z,23.90
2018-04-19T14:20:32.049Z,23.80
2018-04-19T14:22:58.475Z,23.80
2018-04-19T14:25:25.631Z,23.80
2018-04-19T14:27:52.833Z,23.80
2018-04-19T14:30:20.053Z,23.80
2018-04-19T14:32:46.584Z,23.70
2018-04-19T14:35:13.105Z,23.70
2018-04-19T14:37:39.543Z,23.70
2018-04-19T14:40:05.972Z,23.70
2018-04-19T14:42:33.022Z,23.70
2018-04-19T14:44:59.498Z,23.70
2018-04-19T14:47:25.948Z,23.70
2018-04-19T14:49:52.420Z,23.70
2018-04-19T14:52:18.864Z,23.60
2018-04-19T14:54:45.311Z,23.60
2018-04-19T14:57:11.844Z,23.60
2018-04-19T14:59:39.061Z,23.70
2018-04-19T15:02:05.576Z,23.60
2018-04-19T15:04:32.756Z,23.70
2018-04-19T15:06:59.230Z,23.70
2018-04-19T15:09:25.940Z,23.70
2018-04-19T15:11:52.431Z,23.70
2018-04-19T15:14:18.981Z,23.60
2018-04-19T15:16:46.368Z,23.50
2018-04-19T15:19:12.805Z,23.40
2018-04-19T15:21:39.949Z,23.40
2018-04-19T15:24:06.379Z,23.40
2018-04-19T15:26:32.809Z,23.40
2018-04-19T15:28:59.352Z,23.40
2018-04-19T15:31:26.558Z,23.40
2018-04-19T15:33:53.022Z,23.30
2018-04-19T15:36:19.606Z,23.30
2018-04-19T15:38:46.103Z,23.20
2018-04-19T15:41:12.671Z,23.20
2018-04-19T15:43:39.218Z,23.10
2018-04-19T15:46:06.440Z,23.00
2018-04-19T15:48:32.855Z,22.90
2018-04-19T15:50:59.269Z,23.00
2018-04-19T15:53:26.474Z,22.90
2018-04-19T15:55:53.749Z,22.90
2018-04-19T15:58:21.609Z,22.90
2018-04-19T16:00:48.270Z,22.80
2018-04-19T16:03:14.957Z,22.80
2018-04-19T16:05:42.233Z,22.80
2018-04-19T16:08:09.507Z,22.80
2018-04-19T16:10:36.889Z,22.70
2018-04-19T16:13:03.293Z,22.70
2018-04-19T16:15:29.778Z,22.70
2018-04-19T16:17:56.193Z,22.60
2018-04-19T16:20:22.709Z,22.60
2018-04-19T16:22:49.870Z,22.50
2018-04-19T16:25:17.043Z,22.40
2018-04-19T16:27:44.210Z,22.30
2018-04-19T16:30:11.408Z,22.30
2018-04-19T16:32:37.853Z,22.30
2018-04-19T16:35:04.421Z,22.30
2018-04-19T16:37:30.870Z,22.20
2018-04-19T16:39:57.332Z,22.10
2018-04-19T16:42:24.293Z,22.10
2018-04-19T16:44:50.767Z,22.10
2018-04-19T16:47:17.365Z,22.00
2018-04-19T16:49:43.760Z,22.00
2018-04-19T16:52:10.897Z,21.80
2018-04-19T16:54:37.309Z,21.80
2018-04-19T16:57:03.845Z,21.70
2018-04-19T16:59:31.121Z,21.60
2018-04-19T17:01:57.623Z,21.50
2018-04-19T17:04:24.137Z,21.50
2018-04-19T17:06:50.606Z,21.50
2018-04-19T17:09:17.662Z,21.40
2018-04-19T17:11:44.934Z,21.20
2018-04-19T17:14:12.143Z,21.10
2018-04-19T17:16:40.362Z,21.10
2018-04-19T17:19:06.782Z,21.00
2018-04-19T17:21:33.318Z,20.90
2018-04-19T17:23:59.811Z,20.80
2018-04-19T17:26:26.334Z,20.70
2018-04-19T17:28:53.710Z,20.50
2018-04-19T17:31:20.984Z,20.30
2018-04-19T17:33:48.167Z,20.20
2018-04-19T17:36:14.667Z,20.20
2018-04-19T17:38:41.153Z,20.00
2018-04-19T17:41:07.580Z,19.90
2018-04-19T17:43:34.155Z,19.80
2018-04-19T17:46:01.462Z,19.50
2018-04-19T17:48:28.598Z,19.30
2018-04-19T17:50:55.058Z,19.30
2018-04-19T17:53:23.081Z,18.90
2018-04-19T17:55:50.353Z,18.70
2018-04-19T17:58:17.629Z,18.50
2018-04-19T18:00:44.890Z,18.40
2018-04-19T18:03:12.093Z,18.20
2018-04-19T18:05:38.632Z,18.20
2018-04-19T18:08:05.774Z,17.90
2018-04-19T18:10:32.365Z,17.90
2018-04-19T18:12:58.885Z,17.70
2018-04-19T18:15:25.961Z,17.50
2018-04-19T18:17:52.446Z,17.40
2018-04-19T18:20:19.696Z,17.00
2018-04-19T18:22:46.150Z,17.00
2018-04-19T18:25:13.320Z,16.80
2018-04-19T18:27:39.792Z,16.80
2018-04-19T18:30:08.733Z,16.50
2018-04-19T18:32:35.276Z,16.50
2018-04-19T18:35:01.817Z,16.50
2018-04-19T18:37:29.027Z,16.30
2018-04-19T18:39:55.487Z,16.20
2018-04-19T18:42:22.045Z,16.20
2018-04-19T18:44:49.246Z,16.00
2018-04-19T18:47:16.166Z,16.00
2018-04-19T18:49:43.118Z,16.00
2018-04-19T18:52:10.329Z,15.80
2018-04-19T18:54:36.831Z,15.80
2018-04-19T18:57:04.161Z,15.70
2018-04-19T18:59:31.821Z,15.70
2018-04-19T19:01:59.814Z,15.70
2018-04-19T19:04:26.502Z,15.60
2018-04-19T19:06:53.952Z,15.60
2018-04-19T19:09:21.329Z,15.60
2018-04-19T19:11:49.627Z,15.60
2018-04-19T19:14:16.593Z,15.50
2018-04-19T19:16:43.378Z,15.50
2018-04-19T19:19:22.711Z,15.50
2018-04-19T19:21:49.874Z,15.50
2018-04-19T19:24:17.919Z,15.40
2018-04-19T19:26:44.350Z,15.40
2018-04-19T19:29:10.794Z,15.30
2018-04-19T19:31:38.386Z,15.30
2018-04-19T19:34:04.822Z,15.30
2018-04-19T19:36:34.321Z,15.30
2018-04-19T19:39:02.469Z,15.20
2018-04-19T19:41:30.117Z,15.20
2018-04-19T19:43:56.722Z,15.20
2018-04-19T19:46:23.236Z,15.10
2018-04-19T19:48:50.080Z,15.10
2018-04-19T19:51:18.393Z,14.90
2018-04-19T19:53:45.671Z,14.90
2018-04-19T19:56:12.224Z,14.80
2018-04-19T19:58:38.679Z,14.80
2018-04-19T20:01:05.141Z,14.70
2018-04-19T20:03:31.614Z,14.60
2018-04-19T20:05:58.068Z,14.60
2018-04-19T20:08:24.582Z,14.50
2018-04-19T20:10:51.581Z,14.40
2018-04-19T20:13:18.009Z,14.30
2018-04-19T20:15:44.462Z,14.30
2018-04-19T20:18:10.934Z,14.20
2018-04-19T20:20:38.150Z,14.20
2018-04-19T20:23:04.680Z,14.10
2018-04-19T20:25:31.139Z,14.10
2018-04-19T20:27:57.572Z,14.10
2018-04-19T20:30:24.763Z,14.00
2018-04-19T20:32:51.198Z,13.90
2018-04-19T20:35:19.065Z,13.90
2018-04-19T20:37:46.151Z,13.80
2018-04-19T20:40:12.553Z,13.80
2018-04-19T20:42:39.087Z,13.80
2018-04-19T20:45:06.303Z,13.60
2018-04-19T20:47:32.822Z,13.60
2018-04-19T20:49:59.289Z,13.60
2018-04-19T20:52:25.703Z,13.50
2018-04-19T20:54:52.189Z,13.40
2018-04-19T20:57:19.343Z,13.40
2018-04-19T20:59:46.534Z,13.40
2018-04-19T21:02:13.090Z,13.40
2018-04-19T21:04:40.278Z,13.30
2018-04-19T21:07:06.776Z,13.20
2018-04-19T21:09:33.232Z,13.20
2018-04-19T21:11:59.690Z,13.20
2018-04-19T21:14:26.189Z,13.10
2018-04-19T21:16:53.388Z,13.00
2018-04-19T21:19:19.858Z,13.00
2018-04-19T21:21:46.294Z,13.00
2018-04-19T21:24:12.710Z,13.00
2018-04-19T21:26:39.705Z,12.90
2018-04-19T21:29:06.362Z,12.90
2018-04-19T21:31:32.919Z,12.90
2018-04-19T21:33:59.442Z,12.80
2018-04-19T21:36:26.855Z,12.70
2018-04-19T21:38:54.133Z,12.70
2018-04-19T21:41:20.619Z,12.70
2018-04-19T21:43:47.252Z,12.60
2018-04-19T21:46:13.805Z,12.60
2018-04-19T21:48:41.081Z,12.50
2018-04-19T21:51:07.741Z,12.50
2018-04-19T21:53:34.313Z,12.40
2018-04-19T21:56:00.841Z,12.40
2018-04-19T21:58:28.950Z,12.30
2018-04-19T22:00:56.326Z,12.30
2018-04-19T22:03:23.705Z,12.20
2018-04-19T22:05:50.946Z,12.20
2018-04-19T22:08:17.460Z,12.20
2018-04-19T22:10:44.003Z,12.20
2018-04-19T22:13:10.556Z,12.10
2018-04-19T22:15:37.090Z,12.10
2018-04-19T22:18:03.678Z,12.10
2018-04-19T22:20:30.233Z,12.00
2018-04-19T22:22:56.737Z,12.00
2018-04-19T22:25:23.347Z,12.00
2018-04-19T22:27:49.903Z,12.00
2018-04-19T22:30:16.461Z,11.90
2018-04-19T22:32:43.740Z,11.80
2018-04-19T22:35:10.397Z,11.80
2018-04-19T22:37:37.059Z,11.80
2018-04-19T22:40:03.720Z,11.70
2018-04-19T22:42:30.277Z,11.70
2018-04-19T22:44:56.835Z,11.70
2018-04-19T22:47:24.073Z,11.70
2018-04-19T22:49:50.572Z,11.60
2018-04-19T22:52:17.228Z,11.60
2018-04-19T22:54:43.753Z,11.60
2018-04-19T22:57:10.260Z,11.60
2018-04-19T22:59:36.733Z,11.50
2018-04-19T23:02:04.075Z,11.40
2018-04-19T23:04:30.632Z,11.40
2018-04-19T23:06:57.923Z,11.40
2018-04-19T23:09:25.089Z,11.30
2018-04-19T23:11:51.742Z,11.30
2018-04-19T23:14:18.997Z,11.30
2018-04-19T23:16:46.297Z,11.20
2018-04-19T23:19:12.848Z,11.20
2018-04-19T23:21:39.408Z,11.20
2018-04-19T23:24:05.919Z,11.20
2018-04-19T23:26:32.526Z,11.10
2018-04-19T23:28:59.044Z,11.10
2018-04-19T23:31:25.530Z,11.10
2018-04-19T23:33:52.753Z,11.00
2018-04-19T23:36:19.271Z,11.00
2018-04-19T23:38:46.477Z,11.00
2018-04-19T23:41:13.061Z,10.90
2018-04-19T23:43:39.661Z,10.90
2018-04-19T23:46:07.479Z,10.90
2018-04-19T23:48:34.108Z,10.90
2018-04-19T23:51:00.592Z,10.80
2018-04-19T23:53:27.106Z,10.80
2018-04-19T23:55:54.397Z,10.70
2018-04-19T23:58:21.674Z,10.70
